Terminal Aerodrome Forecast
Issued by NWS

Home | Current Version | Previous Version | Text Only | Print | Product List | Glossary On
Versions: 1 2 3 4 5 6 7 8 9 10 11 12 13 14 15 16 17 18 19 20 21 22 23 24 25 26 27 28 29 30 31 32 33 34 35 36 37 38 39 40 41 42 43 44 45 46 47 48 49 50
000
FTUS43 KDMX 090204 AAC
TAFOTM
TAF AMD
KOTM 090204Z 0902/0924 32016G22KT 4SM -SN BLSN OVC022
     FM090400 32018KT 6SM -SN SCT018 OVC025
     FM090700 32018KT 6SM -SHSN BKN018 OVC025
     FM091500 32021G28KT 6SM BLSN OVC030=

USA.gov is the U.S. government's official web portal to all federal, state and local government web resources and services.